sensor_id;sensor_type;location;lat;lon;timestamp;temperature;humidity
3275;DHT22;1649;53.672;10.064;2022-09-02T00:00:58;12.90;99.90
3275;DHT22;1649;53.672;10.064;2022-09-02T00:03:28;12.80;99.90
3275;DHT22;1649;53.672;10.064;2022-09-02T00:05:54;12.80;99.90
3275;DHT22;1649;53.672;10.064;2022-09-02T00:08:20;12.80;99.90
3275;DHT22;1649;53.672;10.064;2022-09-02T00:10:45;12.80;99.90
3275;DHT22;1649;53.672;10.064;2022-09-02T00:13:15;12.80;99.90
3275;DHT22;1649;53.672;10.064;2022-09-02T00:15:41;12.70;99.90
3275;DHT22;1649;53.672;10.064;2022-09-02T00:18:07;12.60;99.90
3275;DHT22;1649;53.672;10.064;2022-09-02T00:20:37;12.70;99.90
3275;DHT22;1649;53.672;10.064;2022-09-02T00:23:03;12.60;99.90
3275;DHT22;1649;53.672;10.064;2022-09-02T00:25:28;12.60;99.90
3275;DHT22;1649;53.672;10.064;2022-09-02T00:27:54;12.60;99.90
3275;DHT22;1649;53.672;10.064;2022-09-02T00:30:19;12.60;99.90
3275;DHT22;1649;53.672;10.064;2022-09-02T00:32:45;12.50;99.90
3275;DHT22;1649;53.672;10.064;2022-09-02T00:35:10;12.40;99.90
3275;DHT22;1649;53.672;10.064;2022-09-02T00:37:37;12.40;99.90
3275;DHT22;1649;53.672;10.064;2022-09-02T00:40:04;12.40;99.90
3275;DHT22;1649;53.672;10.064;2022-09-02T00:42:30;12.40;99.90
3275;DHT22;1649;53.672;10.064;2022-09-02T00:44:55;12.30;99.90
3275;DHT22;1649;53.672;10.064;2022-09-02T00:47:21;12.30;99.90
3275;DHT22;1649;53.672;10.064;2022-09-02T00:49:49;12.30;99.90
3275;DHT22;1649;53.672;10.064;2022-09-02T00:52:29;12.20;99.90
3275;DHT22;1649;53.672;10.064;2022-09-02T00:55:02;12.10;99.90
3275;DHT22;1649;53.672;10.064;2022-09-02T00:57:32;12.00;99.90
3275;DHT22;1649;53.672;10.064;2022-09-02T01:00:14;12.10;99.90
3275;DHT22;1649;53.672;10.064;2022-09-02T01:02:45;12.00;99.90
3275;DHT22;1649;53.672;10.064;2022-09-02T01:05:14;12.00;99.90
3275;DHT22;1649;53.672;10.064;2022-09-02T01:07:41;12.10;99.90
3275;DHT22;1649;53.672;10.064;2022-09-02T01:10:16;12.00;99.90
3275;DHT22;1649;53.672;10.064;2022-09-02T01:12:42;12.00;99.90
3275;DHT22;1649;53.672;10.064;2022-09-02T01:15:09;12.00;99.90
3275;DHT22;1649;53.672;10.064;2022-09-02T01:17:40;12.00;99.90
3275;DHT22;1649;53.672;10.064;2022-09-02T01:20:09;11.90;99.90
3275;DHT22;1649;53.672;10.064;2022-09-02T01:22:37;11.90;99.90
3275;DHT22;1649;53.672;10.064;2022-09-02T01:25:12;11.90;99.90
3275;DHT22;1649;53.672;10.064;2022-09-02T01:27:39;11.80;99.90
3275;DHT22;1649;53.672;10.064;2022-09-02T01:30:07;11.80;99.90
3275;DHT22;1649;53.672;10.064;2022-09-02T01:32:32;11.80;99.90
3275;DHT22;1649;53.672;10.064;2022-09-02T01:34:58;11.80;99.90
3275;DHT22;1649;53.672;10.064;2022-09-02T01:37:24;11.80;99.90
3275;DHT22;1649;53.672;10.064;2022-09-02T01:39:49;11.70;99.90
3275;DHT22;1649;53.672;10.064;2022-09-02T01:42:17;11.70;99.90
3275;DHT22;1649;53.672;10.064;2022-09-02T01:44:43;11.70;99.90
3275;DHT22;1649;53.672;10.064;2022-09-02T01:47:28;11.70;99.90
3275;DHT22;1649;53.672;10.064;2022-09-02T01:49:54;11.70;99.90
3275;DHT22;1649;53.672;10.064;2022-09-02T01:52:21;11.60;99.90
3275;DHT22;1649;53.672;10.064;2022-09-02T01:54:47;11.60;99.90
3275;DHT22;1649;53.672;10.064;2022-09-02T01:57:13;11.50;99.90
3275;DHT22;1649;53.672;10.064;2022-09-02T01:59:39;11.50;99.90
3275;DHT22;1649;53.672;10.064;2022-09-02T02:02:06;11.50;99.90
3275;DHT22;1649;53.672;10.064;2022-09-02T02:04:32;11.50;99.90
3275;DHT22;1649;53.672;10.064;2022-09-02T02:06:57;11.50;99.90
3275;DHT22;1649;53.672;10.064;2022-09-02T02:09:23;11.50;99.90
3275;DHT22;1649;53.672;10.064;2022-09-02T02:11:49;11.50;99.90
3275;DHT22;1649;53.672;10.064;2022-09-02T02:14:15;11.50;99.90
3275;DHT22;1649;53.672;10.064;2022-09-02T02:16:41;11.40;99.90
3275;DHT22;1649;53.672;10.064;2022-09-02T02:19:06;11.40;99.90
3275;DHT22;1649;53.672;10.064;2022-09-02T02:21:33;11.40;99.90
3275;DHT22;1649;53.672;10.064;2022-09-02T02:23:58;11.30;99.90
3275;DHT22;1649;53.672;10.064;2022-09-02T02:26:28;11.40;99.90
3275;DHT22;1649;53.672;10.064;2022-09-02T02:28:53;11.40;99.90
3275;DHT22;1649;53.672;10.064;2022-09-02T02:31:19;11.40;99.90
3275;DHT22;1649;53.672;10.064;2022-09-02T02:33:45;11.40;99.90
3275;DHT22;1649;53.672;10.064;2022-09-02T02:36:12;11.50;99.90
3275;DHT22;1649;53.672;10.064;2022-09-02T02:38:39;11.50;99.90
3275;DHT22;1649;53.672;10.064;2022-09-02T02:41:05;11.50;99.90
3275;DHT22;1649;53.672;10.064;2022-09-02T02:43:34;11.40;99.90
3275;DHT22;1649;53.672;10.064;2022-09-02T02:46:00;11.30;99.90
3275;DHT22;1649;53.672;10.064;2022-09-02T02:48:26;11.30;99.90
3275;DHT22;1649;53.672;10.064;2022-09-02T02:50:52;11.20;99.90
3275;DHT22;1649;53.672;10.064;2022-09-02T02:53:18;11.20;99.90
3275;DHT22;1649;53.672;10.064;2022-09-02T02:55:44;11.20;99.90
3275;DHT22;1649;53.672;10.064;2022-09-02T02:58:09;11.20;99.90
3275;DHT22;1649;53.672;10.064;2022-09-02T03:00:35;11.10;99.90
3275;DHT22;1649;53.672;10.064;2022-09-02T03:03:04;11.20;99.90
3275;DHT22;1649;53.672;10.064;2022-09-02T03:05:31;11.20;99.90
3275;DHT22;1649;53.672;10.064;2022-09-02T03:07:58;11.10;99.90
3275;DHT22;1649;53.672;10.064;2022-09-02T03:10:24;11.10;99.90
3275;DHT22;1649;53.672;10.064;2022-09-02T03:12:51;11.10;99.90
3275;DHT22;1649;53.672;10.064;2022-09-02T03:15:18;11.10;99.90
3275;DHT22;1649;53.672;10.064;2022-09-02T03:17:45;11.10;99.90
3275;DHT22;1649;53.672;10.064;2022-09-02T03:20:11;11.10;99.90
3275;DHT22;1649;53.672;10.064;2022-09-02T03:22:37;11.10;99.90
3275;DHT22;1649;53.672;10.064;2022-09-02T03:25:05;11.10;99.90
3275;DHT22;1649;53.672;10.064;2022-09-02T03:27:31;11.00;99.90
3275;DHT22;1649;53.672;10.064;2022-09-02T03:29:58;11.00;99.90
3275;DHT22;1649;53.672;10.064;2022-09-02T03:32:24;11.00;99.90
3275;DHT22;1649;53.672;10.064;2022-09-02T03:34:49;11.00;99.90
3275;DHT22;1649;53.672;10.064;2022-09-02T03:37:15;10.90;99.90
3275;DHT22;1649;53.672;10.064;2022-09-02T03:39:40;10.90;99.90
3275;DHT22;1649;53.672;10.064;2022-09-02T03:42:06;10.70;99.90
3275;DHT22;1649;53.672;10.064;2022-09-02T03:44:32;10.70;99.90
3275;DHT22;1649;53.672;10.064;2022-09-02T03:46:59;10.70;99.90
3275;DHT22;1649;53.672;10.064;2022-09-02T03:49:24;10.70;99.90
3275;DHT22;1649;53.672;10.064;2022-09-02T03:51:52;10.70;99.90
3275;DHT22;1649;53.672;10.064;2022-09-02T03:54:17;10.60;99.90
3275;DHT22;1649;53.672;10.064;2022-09-02T03:56:43;10.70;99.90
3275;DHT22;1649;53.672;10.064;2022-09-02T03:59:08;10.60;99.90
3275;DHT22;1649;53.672;10.064;2022-09-02T04:01:34;10.60;99.90
3275;DHT22;1649;53.672;10.064;2022-09-02T04:04:00;10.60;99.90
3275;DHT22;1649;53.672;10.064;2022-09-02T04:06:26;10.60;99.90
3275;DHT22;1649;53.672;10.064;2022-09-02T04:08:52;10.50;99.90
3275;DHT22;1649;53.672;10.064;2022-09-02T04:11:19;10.60;99.90
3275;DHT22;1649;53.672;10.064;2022-09-02T04:13:46;10.50;99.90
3275;DHT22;1649;53.672;10.064;2022-09-02T04:16:15;10.40;99.90
3275;DHT22;1649;53.672;10.064;2022-09-02T04:18:42;10.40;99.90
3275;DHT22;1649;53.672;10.064;2022-09-02T04:21:07;10.40;99.90
3275;DHT22;1649;53.672;10.064;2022-09-02T04:23:33;10.40;99.90
3275;DHT22;1649;53.672;10.064;2022-09-02T04:26:07;10.40;99.90
3275;DHT22;1649;53.672;10.064;2022-09-02T04:28:33;10.30;99.90
3275;DHT22;1649;53.672;10.064;2022-09-02T04:31:03;10.40;99.90
3275;DHT22;1649;53.672;10.064;2022-09-02T04:33:29;10.40;99.90
3275;DHT22;1649;53.672;10.064;2022-09-02T04:35:54;10.40;99.90
3275;DHT22;1649;53.672;10.064;2022-09-02T04:38:20;10.40;99.90
3275;DHT22;1649;53.672;10.064;2022-09-02T04:40:46;10.50;99.90
3275;DHT22;1649;53.672;10.064;2022-09-02T04:43:12;10.40;99.90
3275;DHT22;1649;53.672;10.064;2022-09-02T04:45:43;10.30;99.90
3275;DHT22;1649;53.672;10.064;2022-09-02T04:48:09;10.30;99.90
3275;DHT22;1649;53.672;10.064;2022-09-02T04:50:36;10.30;99.90
3275;DHT22;1649;53.672;10.064;2022-09-02T04:53:03;10.30;99.90
3275;DHT22;1649;53.672;10.064;2022-09-02T04:55:28;10.20;99.90
3275;DHT22;1649;53.672;10.064;2022-09-02T04:57:54;10.30;99.90
3275;DHT22;1649;53.672;10.064;2022-09-02T05:00:20;10.30;99.90
3275;DHT22;1649;53.672;10.064;2022-09-02T05:02:45;10.30;99.90
3275;DHT22;1649;53.672;10.064;2022-09-02T05:05:11;10.30;99.90
3275;DHT22;1649;53.672;10.064;2022-09-02T05:07:37;10.30;99.90
3275;DHT22;1649;53.672;10.064;2022-09-02T05:10:05;10.40;99.90
3275;DHT22;1649;53.672;10.064;2022-09-02T05:12:32;10.30;99.90
3275;DHT22;1649;53.672;10.064;2022-09-02T05:14:59;10.40;99.90
3275;DHT22;1649;53.672;10.064;2022-09-02T05:17:26;10.40;99.90
3275;DHT22;1649;53.672;10.064;2022-09-02T05:19:52;10.40;99.90
3275;DHT22;1649;53.672;10.064;2022-09-02T05:22:17;10.40;99.90
3275;DHT22;1649;53.672;10.064;2022-09-02T05:24:44;10.40;99.90
3275;DHT22;1649;53.672;10.064;2022-09-02T05:27:10;10.50;99.90
3275;DHT22;1649;53.672;10.064;2022-09-02T05:29:36;10.40;99.90
3275;DHT22;1649;53.672;10.064;2022-09-02T05:32:01;10.50;99.90
3275;DHT22;1649;53.672;10.064;2022-09-02T05:34:28;10.60;99.90
3275;DHT22;1649;53.672;10.064;2022-09-02T05:36:54;10.70;99.90
3275;DHT22;1649;53.672;10.064;2022-09-02T05:39:19;10.70;99.90
3275;DHT22;1649;53.672;10.064;2022-09-02T05:41:45;10.80;99.90
3275;DHT22;1649;53.672;10.064;2022-09-02T05:44:11;10.90;99.90
3275;DHT22;1649;53.672;10.064;2022-09-02T05:46:36;10.90;99.90
3275;DHT22;1649;53.672;10.064;2022-09-02T05:49:03;10.90;99.90
3275;DHT22;1649;53.672;10.064;2022-09-02T05:51:44;11.00;99.90
3275;DHT22;1649;53.672;10.064;2022-09-02T05:54:16;11.10;99.90
3275;DHT22;1649;53.672;10.064;2022-09-02T05:56:44;11.20;99.90
3275;DHT22;1649;53.672;10.064;2022-09-02T05:59:10;11.40;99.90
3275;DHT22;1649;53.672;10.064;2022-09-02T06:01:36;11.60;99.90
3275;DHT22;1649;53.672;10.064;2022-09-02T06:04:02;11.60;99.90
3275;DHT22;1649;53.672;10.064;2022-09-02T06:06:29;11.70;99.90
3275;DHT22;1649;53.672;10.064;2022-09-02T06:08:55;11.80;99.90
3275;DHT22;1649;53.672;10.064;2022-09-02T06:11:20;11.80;99.90
3275;DHT22;1649;53.672;10.064;2022-09-02T06:13:46;11.90;99.90
3275;DHT22;1649;53.672;10.064;2022-09-02T06:16:15;12.10;99.90
3275;DHT22;1649;53.672;10.064;2022-09-02T06:18:41;12.20;99.90
3275;DHT22;1649;53.672;10.064;2022-09-02T06:21:07;12.40;99.90
3275;DHT22;1649;53.672;10.064;2022-09-02T06:23:35;12.70;99.90
3275;DHT22;1649;53.672;10.064;2022-09-02T06:26:01;13.30;99.90
3275;DHT22;1649;53.672;10.064;2022-09-02T06:28:26;14.00;99.90
3275;DHT22;1649;53.672;10.064;2022-09-02T06:30:52;14.60;99.90
3275;DHT22;1649;53.672;10.064;2022-09-02T06:33:18;15.60;99.90
3275;DHT22;1649;53.672;10.064;2022-09-02T06:35:44;16.90;99.90
3275;DHT22;1649;53.672;10.064;2022-09-02T06:38:11;17.80;99.90
3275;DHT22;1649;53.672;10.064;2022-09-02T06:40:45;18.40;99.90
3275;DHT22;1649;53.672;10.064;2022-09-02T06:43:11;19.70;99.90
3275;DHT22;1649;53.672;10.064;2022-09-02T06:45:41;20.50;99.90
3275;DHT22;1649;53.672;10.064;2022-09-02T06:48:07;21.00;99.90
3275;DHT22;1649;53.672;10.064;2022-09-02T06:50:40;21.70;99.60
3275;DHT22;1649;53.672;10.064;2022-09-02T06:53:07;22.10;97.30
3275;DHT22;1649;53.672;10.064;2022-09-02T06:55:38;21.60;96.20
3275;DHT22;1649;53.672;10.064;2022-09-02T06:58:04;21.80;95.70
3275;DHT22;1649;53.672;10.064;2022-09-02T07:00:30;21.70;95.80
3275;DHT22;1649;53.672;10.064;2022-09-02T07:02:57;22.20;96.30
3275;DHT22;1649;53.672;10.064;2022-09-02T07:05:41;22.40;94.50
3275;DHT22;1649;53.672;10.064;2022-09-02T07:08:07;22.70;95.10
3275;DHT22;1649;53.672;10.064;2022-09-02T07:10:36;23.00;93.50
3275;DHT22;1649;53.672;10.064;2022-09-02T07:13:02;22.90;93.00
3275;DHT22;1649;53.672;10.064;2022-09-02T07:15:28;22.70;92.80
3275;DHT22;1649;53.672;10.064;2022-09-02T07:17:53;22.50;93.00
3275;DHT22;1649;53.672;10.064;2022-09-02T07:20:19;22.20;92.90
3275;DHT22;1649;53.672;10.064;2022-09-02T07:22:44;21.70;93.50
3275;DHT22;1649;53.672;10.064;2022-09-02T07:25:10;21.30;94.10
3275;DHT22;1649;53.672;10.064;2022-09-02T07:27:36;21.00;94.50
3275;DHT22;1649;53.672;10.064;2022-09-02T07:30:02;20.80;95.20
3275;DHT22;1649;53.672;10.064;2022-09-02T07:32:29;20.20;95.80
3275;DHT22;1649;53.672;10.064;2022-09-02T07:34:55;19.70;96.10
3275;DHT22;1649;53.672;10.064;2022-09-02T07:37:20;19.50;96.90
3275;DHT22;1649;53.672;10.064;2022-09-02T07:39:46;19.20;97.20
3275;DHT22;1649;53.672;10.064;2022-09-02T07:42:12;19.30;97.40
3275;DHT22;1649;53.672;10.064;2022-09-02T07:44:38;19.90;96.80
3275;DHT22;1649;53.672;10.064;2022-09-02T07:47:04;20.70;95.10
3275;DHT22;1649;53.672;10.064;2022-09-02T07:49:30;21.30;93.70
3275;DHT22;1649;53.672;10.064;2022-09-02T07:51:56;21.90;92.30
3275;DHT22;1649;53.672;10.064;2022-09-02T07:54:23;22.20;92.40
3275;DHT22;1649;53.672;10.064;2022-09-02T07:56:50;22.70;90.80
3275;DHT22;1649;53.672;10.064;2022-09-02T07:59:16;22.90;91.60
3275;DHT22;1649;53.672;10.064;2022-09-02T08:01:42;23.10;90.90
3275;DHT22;1649;53.672;10.064;2022-09-02T08:04:08;23.20;90.20
3275;DHT22;1649;53.672;10.064;2022-09-02T08:06:35;23.90;89.40
3275;DHT22;1649;53.672;10.064;2022-09-02T08:09:06;23.70;86.60
3275;DHT22;1649;53.672;10.064;2022-09-02T08:11:37;23.50;87.00
3275;DHT22;1649;53.672;10.064;2022-09-02T08:14:06;23.50;86.30
3275;DHT22;1649;53.672;10.064;2022-09-02T08:16:32;23.40;86.20
3275;DHT22;1649;53.672;10.064;2022-09-02T08:18:58;23.50;86.90
3275;DHT22;1649;53.672;10.064;2022-09-02T08:21:23;23.60;86.90
3275;DHT22;1649;53.672;10.064;2022-09-02T08:23:52;23.30;87.00
3275;DHT22;1649;53.672;10.064;2022-09-02T08:26:17;23.40;86.80
3275;DHT22;1649;53.672;10.064;2022-09-02T08:28:43;23.70;85.70
3275;DHT22;1649;53.672;10.064;2022-09-02T08:31:09;24.10;86.10
3275;DHT22;1649;53.672;10.064;2022-09-02T08:33:35;24.50;85.20
3275;DHT22;1649;53.672;10.064;2022-09-02T08:36:08;25.00;86.40
3275;DHT22;1649;53.672;10.064;2022-09-02T08:38:36;25.20;82.10
3275;DHT22;1649;53.672;10.064;2022-09-02T08:43:42;25.90;81.00
3275;DHT22;1649;53.672;10.064;2022-09-02T08:46:11;26.00;80.10
3275;DHT22;1649;53.672;10.064;2022-09-02T08:51:49;25.50;78.40
3275;DHT22;1649;53.672;10.064;2022-09-02T08:54:45;25.60;77.30
3275;DHT22;1649;53.672;10.064;2022-09-02T08:57:12;25.40;77.60
3275;DHT22;1649;53.672;10.064;2022-09-02T08:59:38;25.60;77.80
3275;DHT22;1649;53.672;10.064;2022-09-02T09:07:52;26.10;75.90
3275;DHT22;1649;53.672;10.064;2022-09-02T09:13:14;26.90;75.10
3275;DHT22;1649;53.672;10.064;2022-09-02T09:18:52;26.30;73.10
3275;DHT22;1649;53.672;10.064;2022-09-02T09:21:21;26.50;73.40
3275;DHT22;1649;53.672;10.064;2022-09-02T09:23:49;26.70;74.40
3275;DHT22;1649;53.672;10.064;2022-09-02T09:26:22;26.40;71.80
3275;DHT22;1649;53.672;10.064;2022-09-02T09:28:50;26.60;72.50
3275;DHT22;1649;53.672;10.064;2022-09-02T09:31:18;26.70;72.20
3275;DHT22;1649;53.672;10.064;2022-09-02T09:34:02;25.90;70.30
3275;DHT22;1649;53.672;10.064;2022-09-02T09:39:31;26.00;74.80
3275;DHT22;1649;53.672;10.064;2022-09-02T09:41:58;26.10;71.40
3275;DHT22;1649;53.672;10.064;2022-09-02T09:44:40;26.50;73.60
3275;DHT22;1649;53.672;10.064;2022-09-02T09:47:13;26.20;72.40
3275;DHT22;1649;53.672;10.064;2022-09-02T09:49:39;26.40;73.00
3275;DHT22;1649;53.672;10.064;2022-09-02T09:52:05;26.60;72.30
3275;DHT22;1649;53.672;10.064;2022-09-02T09:54:31;26.50;70.30
3275;DHT22;1649;53.672;10.064;2022-09-02T09:57:13;26.00;69.80
3275;DHT22;1649;53.672;10.064;2022-09-02T09:59:43;26.10;73.70
3275;DHT22;1649;53.672;10.064;2022-09-02T10:02:19;26.70;71.50
3275;DHT22;1649;53.672;10.064;2022-09-02T10:04:46;27.10;71.30
3275;DHT22;1649;53.672;10.064;2022-09-02T10:07:12;27.20;69.00
3275;DHT22;1649;53.672;10.064;2022-09-02T10:09:38;27.00;69.30
3275;DHT22;1649;53.672;10.064;2022-09-02T10:12:10;27.20;69.80
3275;DHT22;1649;53.672;10.064;2022-09-02T10:14:42;27.00;67.90
3275;DHT22;1649;53.672;10.064;2022-09-02T10:25:41;26.70;70.90
3275;DHT22;1649;53.672;10.064;2022-09-02T10:33:45;25.70;68.70
3275;DHT22;1649;53.672;10.064;2022-09-02T10:36:27;26.10;70.40
3275;DHT22;1649;53.672;10.064;2022-09-02T10:40:05;26.30;70.20
3275;DHT22;1649;53.672;10.064;2022-09-02T10:42:06;26.30;68.70
3275;DHT22;1649;53.672;10.064;2022-09-02T10:47:39;26.30;70.20
3275;DHT22;1649;53.672;10.064;2022-09-02T10:58:35;26.10;68.90
3275;DHT22;1649;53.672;10.064;2022-09-02T11:01:02;25.70;67.90
3275;DHT22;1649;53.672;10.064;2022-09-02T11:03:40;24.90;70.20
3275;DHT22;1649;53.672;10.064;2022-09-02T11:06:16;24.60;71.10
3275;DHT22;1649;53.672;10.064;2022-09-02T11:08:50;24.40;70.10
3275;DHT22;1649;53.672;10.064;2022-09-02T11:16:34;24.40;70.20
3275;DHT22;1649;53.672;10.064;2022-09-02T11:19:35;24.90;71.70
3275;DHT22;1649;53.672;10.064;2022-09-02T11:24:56;24.30;70.90
3275;DHT22;1649;53.672;10.064;2022-09-02T11:27:29;23.80;70.70
3275;DHT22;1649;53.672;10.064;2022-09-02T11:30:16;23.70;71.40
3275;DHT22;1649;53.672;10.064;2022-09-02T11:32:57;23.90;71.30
3275;DHT22;1649;53.672;10.064;2022-09-02T11:35:26;24.10;69.70
3275;DHT22;1649;53.672;10.064;2022-09-02T11:38:43;24.30;70.50
3275;DHT22;1649;53.672;10.064;2022-09-02T11:44:10;24.90;70.40
3275;DHT22;1649;53.672;10.064;2022-09-02T11:46:33;25.00;68.80
3275;DHT22;1649;53.672;10.064;2022-09-02T11:49:45;25.00;70.00
3275;DHT22;1649;53.672;10.064;2022-09-02T11:55:24;25.70;70.70
3275;DHT22;1649;53.672;10.064;2022-09-02T11:57:53;26.20;70.00
3275;DHT22;1649;53.672;10.064;2022-09-02T12:03:15;26.20;66.80
3275;DHT22;1649;53.672;10.064;2022-09-02T12:08:14;25.80;66.40
3275;DHT22;1649;53.672;10.064;2022-09-02T12:11:05;25.00;67.90
3275;DHT22;1649;53.672;10.064;2022-09-02T12:13:40;24.60;69.30
3275;DHT22;1649;53.672;10.064;2022-09-02T12:21:33;23.80;66.80
3275;DHT22;1649;53.672;10.064;2022-09-02T12:24:01;23.60;67.70
3275;DHT22;1649;53.672;10.064;2022-09-02T12:29:10;23.60;70.30
3275;DHT22;1649;53.672;10.064;2022-09-02T12:31:40;23.40;68.70
3275;DHT22;1649;53.672;10.064;2022-09-02T12:36:59;23.30;70.70
3275;DHT22;1649;53.672;10.064;2022-09-02T12:45:04;24.00;67.40
3275;DHT22;1649;53.672;10.064;2022-09-02T12:47:56;23.60;68.90
3275;DHT22;1649;53.672;10.064;2022-09-02T12:50:31;23.20;70.00
3275;DHT22;1649;53.672;10.064;2022-09-02T12:53:34;22.90;69.90
3275;DHT22;1649;53.672;10.064;2022-09-02T12:56:04;22.80;70.70
3275;DHT22;1649;53.672;10.064;2022-09-02T12:58:37;23.00;71.40
3275;DHT22;1649;53.672;10.064;2022-09-02T13:01:15;23.40;73.10
3275;DHT22;1649;53.672;10.064;2022-09-02T13:17:59;23.70;70.10
3275;DHT22;1649;53.672;10.064;2022-09-02T13:26:54;23.70;68.60
3275;DHT22;1649;53.672;10.064;2022-09-02T13:29:50;23.90;70.70
3275;DHT22;1649;53.672;10.064;2022-09-02T13:32:24;24.20;69.20
3275;DHT22;1649;53.672;10.064;2022-09-02T13:34:52;24.30;67.80
3275;DHT22;1649;53.672;10.064;2022-09-02T13:37:35;23.80;68.90
3275;DHT22;1649;53.672;10.064;2022-09-02T13:40:16;23.60;69.90
3275;DHT22;1649;53.672;10.064;2022-09-02T13:42:50;23.60;69.20
3275;DHT22;1649;53.672;10.064;2022-09-02T13:45:25;23.70;68.90
3275;DHT22;1649;53.672;10.064;2022-09-02T13:47:53;23.80;68.80
3275;DHT22;1649;53.672;10.064;2022-09-02T13:50:24;23.90;69.30
3275;DHT22;1649;53.672;10.064;2022-09-02T13:52:53;23.80;68.60
3275;DHT22;1649;53.672;10.064;2022-09-02T13:55:19;23.90;66.80
3275;DHT22;1649;53.672;10.064;2022-09-02T13:57:54;23.60;67.30
3275;DHT22;1649;53.672;10.064;2022-09-02T14:00:39;23.10;68.50
3275;DHT22;1649;53.672;10.064;2022-09-02T14:03:17;23.10;70.30
3275;DHT22;1649;53.672;10.064;2022-09-02T14:05:46;23.20;69.40
3275;DHT22;1649;53.672;10.064;2022-09-02T14:08:15;23.30;68.40
3275;DHT22;1649;53.672;10.064;2022-09-02T14:10:43;23.40;67.60
3275;DHT22;1649;53.672;10.064;2022-09-02T14:13:11;23.40;67.70
3275;DHT22;1649;53.672;10.064;2022-09-02T14:15:37;23.30;67.20
3275;DHT22;1649;53.672;10.064;2022-09-02T14:20:35;23.50;67.30
3275;DHT22;1649;53.672;10.064;2022-09-02T14:23:01;23.60;67.60
3275;DHT22;1649;53.672;10.064;2022-09-02T14:25:34;23.50;65.00
3275;DHT22;1649;53.672;10.064;2022-09-02T14:28:05;23.30;64.90
3275;DHT22;1649;53.672;10.064;2022-09-02T14:30:33;23.40;65.60
3275;DHT22;1649;53.672;10.064;2022-09-02T14:36:05;23.40;66.50
3275;DHT22;1649;53.672;10.064;2022-09-02T14:38:53;23.60;65.10
3275;DHT22;1649;53.672;10.064;2022-09-02T14:41:29;23.40;66.30
3275;DHT22;1649;53.672;10.064;2022-09-02T14:43:59;23.40;65.60
3275;DHT22;1649;53.672;10.064;2022-09-02T14:46:35;23.30;66.00
3275;DHT22;1649;53.672;10.064;2022-09-02T14:51:42;23.00;65.90
3275;DHT22;1649;53.672;10.064;2022-09-02T14:54:09;22.70;67.10
3275;DHT22;1649;53.672;10.064;2022-09-02T14:56:51;22.50;67.40
3275;DHT22;1649;53.672;10.064;2022-09-02T14:59:18;22.50;69.20
3275;DHT22;1649;53.672;10.064;2022-09-02T15:01:49;22.80;68.20
3275;DHT22;1649;53.672;10.064;2022-09-02T15:04:15;23.20;67.50
3275;DHT22;1649;53.672;10.064;2022-09-02T15:06:42;23.30;66.60
3275;DHT22;1649;53.672;10.064;2022-09-02T15:09:09;23.20;66.70
3275;DHT22;1649;53.672;10.064;2022-09-02T15:11:39;23.00;66.00
3275;DHT22;1649;53.672;10.064;2022-09-02T15:14:05;22.80;67.60
3275;DHT22;1649;53.672;10.064;2022-09-02T15:16:31;22.60;68.10
3275;DHT22;1649;53.672;10.064;2022-09-02T15:18:57;22.40;67.70
3275;DHT22;1649;53.672;10.064;2022-09-02T15:21:22;22.40;68.30
3275;DHT22;1649;53.672;10.064;2022-09-02T15:23:48;22.40;68.30
3275;DHT22;1649;53.672;10.064;2022-09-02T15:26:15;22.40;67.80
3275;DHT22;1649;53.672;10.064;2022-09-02T15:28:40;22.40;68.30
3275;DHT22;1649;53.672;10.064;2022-09-02T15:31:07;22.40;69.00
3275;DHT22;1649;53.672;10.064;2022-09-02T15:33:33;22.40;69.50
3275;DHT22;1649;53.672;10.064;2022-09-02T15:38:31;22.40;69.40
3275;DHT22;1649;53.672;10.064;2022-09-02T15:41:12;22.40;69.30
3275;DHT22;1649;53.672;10.064;2022-09-02T15:43:38;22.30;69.50
3275;DHT22;1649;53.672;10.064;2022-09-02T15:46:16;22.30;70.80
3275;DHT22;1649;53.672;10.064;2022-09-02T15:48:42;22.20;70.00
3275;DHT22;1649;53.672;10.064;2022-09-02T15:51:12;22.10;70.90
3275;DHT22;1649;53.672;10.064;2022-09-02T15:53:38;22.10;70.30
3275;DHT22;1649;53.672;10.064;2022-09-02T15:56:03;22.00;70.90
3275;DHT22;1649;53.672;10.064;2022-09-02T15:58:29;22.00;70.10
3275;DHT22;1649;53.672;10.064;2022-09-02T16:00:55;22.00;69.70
3275;DHT22;1649;53.672;10.064;2022-09-02T16:03:20;22.20;69.20
3275;DHT22;1649;53.672;10.064;2022-09-02T16:05:45;22.20;69.00
3275;DHT22;1649;53.672;10.064;2022-09-02T16:08:11;22.10;68.90
3275;DHT22;1649;53.672;10.064;2022-09-02T16:10:37;21.90;67.80
3275;DHT22;1649;53.672;10.064;2022-09-02T16:13:04;21.70;68.10
3275;DHT22;1649;53.672;10.064;2022-09-02T16:15:29;21.50;68.50
3275;DHT22;1649;53.672;10.064;2022-09-02T16:17:55;21.50;69.40
3275;DHT22;1649;53.672;10.064;2022-09-02T16:20:20;21.50;69.90
3275;DHT22;1649;53.672;10.064;2022-09-02T16:22:47;21.60;70.00
3275;DHT22;1649;53.672;10.064;2022-09-02T16:25:13;21.60;70.70
3275;DHT22;1649;53.672;10.064;2022-09-02T16:27:38;21.70;70.00
3275;DHT22;1649;53.672;10.064;2022-09-02T16:30:16;21.80;69.60
3275;DHT22;1649;53.672;10.064;2022-09-02T16:32:42;21.90;68.60
3275;DHT22;1649;53.672;10.064;2022-09-02T16:35:08;21.80;68.40
3275;DHT22;1649;53.672;10.064;2022-09-02T16:37:33;21.80;68.70
3275;DHT22;1649;53.672;10.064;2022-09-02T16:39:59;21.60;69.00
3275;DHT22;1649;53.672;10.064;2022-09-02T16:42:25;21.50;69.90
3275;DHT22;1649;53.672;10.064;2022-09-02T16:44:50;21.40;70.60
3275;DHT22;1649;53.672;10.064;2022-09-02T16:47:16;21.40;71.30
3275;DHT22;1649;53.672;10.064;2022-09-02T16:49:41;21.40;71.00
3275;DHT22;1649;53.672;10.064;2022-09-02T16:52:07;21.30;71.00
3275;DHT22;1649;53.672;10.064;2022-09-02T16:54:33;21.10;70.20
3275;DHT22;1649;53.672;10.064;2022-09-02T16:56:59;21.10;71.30
3275;DHT22;1649;53.672;10.064;2022-09-02T16:59:25;21.00;71.50
3275;DHT22;1649;53.672;10.064;2022-09-02T17:01:51;21.00;72.00
3275;DHT22;1649;53.672;10.064;2022-09-02T17:04:17;20.90;72.60
3275;DHT22;1649;53.672;10.064;2022-09-02T17:06:42;20.90;72.10
3275;DHT22;1649;53.672;10.064;2022-09-02T17:09:08;20.80;71.80
3275;DHT22;1649;53.672;10.064;2022-09-02T17:11:35;20.70;72.10
3275;DHT22;1649;53.672;10.064;2022-09-02T17:14:08;20.70;72.50
3275;DHT22;1649;53.672;10.064;2022-09-02T17:16:37;20.60;72.60
3275;DHT22;1649;53.672;10.064;2022-09-02T17:19:03;20.60;72.90
3275;DHT22;1649;53.672;10.064;2022-09-02T17:21:40;20.50;73.00
3275;DHT22;1649;53.672;10.064;2022-09-02T17:24:07;20.40;72.70
3275;DHT22;1649;53.672;10.064;2022-09-02T17:26:35;20.30;74.20
3275;DHT22;1649;53.672;10.064;2022-09-02T17:29:06;20.20;74.60
3275;DHT22;1649;53.672;10.064;2022-09-02T17:31:33;20.00;74.50
3275;DHT22;1649;53.672;10.064;2022-09-02T17:34:00;20.00;75.10
3275;DHT22;1649;53.672;10.064;2022-09-02T17:36:27;19.90;76.40
3275;DHT22;1649;53.672;10.064;2022-09-02T17:38:55;19.80;76.60
3275;DHT22;1649;53.672;10.064;2022-09-02T17:41:22;19.80;78.10
3275;DHT22;1649;53.672;10.064;2022-09-02T17:44:06;19.60;77.90
3275;DHT22;1649;53.672;10.064;2022-09-02T17:46:31;19.60;79.00
3275;DHT22;1649;53.672;10.064;2022-09-02T17:48:57;19.50;80.40